sensor_id;sensor_type;location;lat;lon;timestamp;pressure;altitude;pressure_sealevel;temperature;humidity
44131;BME280;29792;48.726;9.248;2024-02-28T00:00:56;96814.94;;;7.90;100.00
44131;BME280;29792;48.726;9.248;2024-02-28T00:03:21;96809.84;;;7.90;100.00
44131;BME280;29792;48.726;9.248;2024-02-28T00:05:48;96804.03;;;7.88;100.00
44131;BME280;29792;48.726;9.248;2024-02-28T00:08:14;96815.97;;;7.87;100.00
44131;BME280;29792;48.726;9.248;2024-02-28T00:10:39;96819.47;;;7.86;100.00
44131;BME280;29792;48.726;9.248;2024-02-28T00:13:04;96822.13;;;7.85;100.00
44131;BME280;29792;48.726;9.248;2024-02-28T00:15:30;96821.19;;;7.86;100.00
44131;BME280;29792;48.726;9.248;2024-02-28T00:17:55;96822.94;;;7.85;100.00
44131;BME280;29792;48.726;9.248;2024-02-28T00:20:20;96825.59;;;7.84;100.00
44131;BME280;29792;48.726;9.248;2024-02-28T00:22:45;96821.41;;;7.83;100.00
44131;BME280;29792;48.726;9.248;2024-02-28T00:25:11;96826.63;;;7.81;100.00
44131;BME280;29792;48.726;9.248;2024-02-28T00:27:37;96834.97;;;7.83;100.00
44131;BME280;29792;48.726;9.248;2024-02-28T00:30:04;96829.06;;;7.83;100.00
44131;BME280;29792;48.726;9.248;2024-02-28T00:32:32;96823.97;;;7.83;100.00
44131;BME280;29792;48.726;9.248;2024-02-28T00:34:57;96824.88;;;7.82;100.00
44131;BME280;29792;48.726;9.248;2024-02-28T00:37:23;96833.13;;;7.85;100.00
44131;BME280;29792;48.726;9.248;2024-02-28T00:39:49;96826.41;;;7.84;100.00
44131;BME280;29792;48.726;9.248;2024-02-28T00:42:15;96831.50;;;7.84;100.00
44131;BME280;29792;48.726;9.248;2024-02-28T00:44:40;96834.16;;;7.83;100.00
44131;BME280;29792;48.726;9.248;2024-02-28T00:47:07;96829.06;;;7.83;100.00
44131;BME280;29792;48.726;9.248;2024-02-28T00:49:32;96829.97;;;7.82;100.00
44131;BME280;29792;48.726;9.248;2024-02-28T00:51:58;96824.78;;;7.83;100.00
44131;BME280;29792;48.726;9.248;2024-02-28T00:54:23;96820.59;;;7.82;100.00
44131;BME280;29792;48.726;9.248;2024-02-28T00:56:50;96815.41;;;7.84;100.00
44131;BME280;29792;48.726;9.248;2024-02-28T00:59:15;96819.78;;;7.82;100.00
44131;BME280;29792;48.726;9.248;2024-02-28T01:01:40;96825.69;;;7.82;100.00
44131;BME280;29792;48.726;9.248;2024-02-28T01:04:06;96828.34;;;7.81;100.00
44131;BME280;29792;48.726;9.248;2024-02-28T01:06:32;96822.44;;;7.80;100.00
44131;BME280;29792;48.726;9.248;2024-02-28T01:08:58;96826.72;;;7.80;100.00
44131;BME280;29792;48.726;9.248;2024-02-28T01:11:23;96831.00;;;7.79;100.00
44131;BME280;29792;48.726;9.248;2024-02-28T01:13:48;96831.16;;;7.78;100.00
44131;BME280;29792;48.726;9.248;2024-02-28T01:16:14;96827.97;;;7.74;100.00
44131;BME280;29792;48.726;9.248;2024-02-28T01:18:39;96829.72;;;7.74;100.00
44131;BME280;29792;48.726;9.248;2024-02-28T01:21:04;96834.81;;;7.74;100.00
44131;BME280;29792;48.726;9.248;2024-02-28T01:23:30;96833.19;;;7.73;100.00
44131;BME280;29792;48.726;9.248;2024-02-28T01:25:55;96833.19;;;7.73;100.00
44131;BME280;29792;48.726;9.248;2024-02-28T01:28:20;96836.66;;;7.72;100.00
44131;BME280;29792;48.726;9.248;2024-02-28T01:30:46;96840.13;;;7.71;100.00
44131;BME280;29792;48.726;9.248;2024-02-28T01:33:11;96837.56;;;7.71;100.00
44131;BME280;29792;48.726;9.248;2024-02-28T01:35:38;96835.16;;;7.69;100.00
44131;BME280;29792;48.726;9.248;2024-02-28T01:38:04;96849.41;;;7.72;100.00
44131;BME280;29792;48.726;9.248;2024-02-28T01:40:29;96847.78;;;7.71;100.00
44131;BME280;29792;48.726;9.248;2024-02-28T01:42:54;96846.84;;;7.72;100.00
44131;BME280;29792;48.726;9.248;2024-02-28T01:45:20;96846.16;;;7.70;100.00
44131;BME280;29792;48.726;9.248;2024-02-28T01:47:45;96852.19;;;7.69;100.00
44131;BME280;29792;48.726;9.248;2024-02-28T01:50:11;96856.47;;;7.68;100.00
44131;BME280;29792;48.726;9.248;2024-02-28T01:52:37;96854.03;;;7.66;100.00
44131;BME280;29792;48.726;9.248;2024-02-28T01:55:03;96852.28;;;7.67;100.00
44131;BME280;29792;48.726;9.248;2024-02-28T01:57:31;96848.94;;;7.66;100.00
44131;BME280;29792;48.726;9.248;2024-02-28T01:59:56;96848.22;;;7.64;100.00
44131;BME280;29792;48.726;9.248;2024-02-28T02:02:22;96849.13;;;7.63;100.00
44131;BME280;29792;48.726;9.248;2024-02-28T02:04:47;96856.78;;;7.63;100.00
44131;BME280;29792;48.726;9.248;2024-02-28T02:07:12;96852.84;;;7.59;100.00
44131;BME280;29792;48.726;9.248;2024-02-28T02:09:38;96866.28;;;7.61;100.00
44131;BME280;29792;48.726;9.248;2024-02-28T02:12:03;96863.75;;;7.61;100.00
44131;BME280;29792;48.726;9.248;2024-02-28T02:14:28;96873.00;;;7.62;100.00
44131;BME280;29792;48.726;9.248;2024-02-28T02:16:54;96872.22;;;7.62;100.00
44131;BME280;29792;48.726;9.248;2024-02-28T02:19:19;96870.44;;;7.62;100.00
44131;BME280;29792;48.726;9.248;2024-02-28T02:21:50;96875.53;;;7.62;100.00
44131;BME280;29792;48.726;9.248;2024-02-28T02:24:17;96875.53;;;7.62;100.00
44131;BME280;29792;48.726;9.248;2024-02-28T02:26:42;96870.44;;;7.62;100.00
44131;BME280;29792;48.726;9.248;2024-02-28T02:29:09;96878.81;;;7.64;100.00
44131;BME280;29792;48.726;9.248;2024-02-28T02:31:35;96879.63;;;7.65;100.00
44131;BME280;29792;48.726;9.248;2024-02-28T02:34:00;96884.81;;;7.63;100.00
44131;BME280;29792;48.726;9.248;2024-02-28T02:36:25;96885.88;;;7.61;100.00
44131;BME280;29792;48.726;9.248;2024-02-28T02:38:50;96896.88;;;7.61;100.00
44131;BME280;29792;48.726;9.248;2024-02-28T02:41:16;96901.16;;;7.61;100.00
44131;BME280;29792;48.726;9.248;2024-02-28T02:43:41;96896.97;;;7.60;100.00
44131;BME280;29792;48.726;9.248;2024-02-28T02:46:06;96907.06;;;7.61;100.00
44131;BME280;29792;48.726;9.248;2024-02-28T02:48:31;96904.63;;;7.60;100.00
44131;BME280;29792;48.726;9.248;2024-02-28T02:50:57;96907.19;;;7.60;100.00
44131;BME280;29792;48.726;9.248;2024-02-28T02:53:22;96913.19;;;7.59;100.00
44131;BME280;29792;48.726;9.248;2024-02-28T02:55:47;96908.19;;;7.57;100.00
44131;BME280;29792;48.726;9.248;2024-02-28T02:58:12;96910.66;;;7.59;100.00
44131;BME280;29792;48.726;9.248;2024-02-28T03:00:38;96911.47;;;7.59;100.00
44131;BME280;29792;48.726;9.248;2024-02-28T03:03:03;96914.09;;;7.58;100.00
44131;BME280;29792;48.726;9.248;2024-02-28T03:05:29;96916.03;;;7.54;100.00
44131;BME280;29792;48.726;9.248;2024-02-28T03:07:54;96927.88;;;7.55;100.00
44131;BME280;29792;48.726;9.248;2024-02-28T03:10:19;96921.13;;;7.54;100.00
44131;BME280;29792;48.726;9.248;2024-02-28T03:12:44;96932.28;;;7.53;100.00
44131;BME280;29792;48.726;9.248;2024-02-28T03:15:10;96932.38;;;7.52;100.00
44131;BME280;29792;48.726;9.248;2024-02-28T03:17:35;96935.94;;;7.49;100.00
44131;BME280;29792;48.726;9.248;2024-02-28T03:20:00;96945.44;;;7.47;100.00
44131;BME280;29792;48.726;9.248;2024-02-28T03:22:25;96950.53;;;7.47;100.00
44131;BME280;29792;48.726;9.248;2024-02-28T03:24:51;96951.56;;;7.45;100.00
44131;BME280;29792;48.726;9.248;2024-02-28T03:27:16;96953.31;;;7.44;100.00
44131;BME280;29792;48.726;9.248;2024-02-28T03:29:41;96955.84;;;7.44;100.00
44131;BME280;29792;48.726;9.248;2024-02-28T03:32:06;96951.66;;;7.43;100.00
44131;BME280;29792;48.726;9.248;2024-02-28T03:34:32;96966.03;;;7.44;100.00
44131;BME280;29792;48.726;9.248;2024-02-28T03:36:57;96966.97;;;7.43;100.00
44131;BME280;29792;48.726;9.248;2024-02-28T03:39:23;96968.69;;;7.43;100.00
44131;BME280;29792;48.726;9.248;2024-02-28T03:41:48;96972.78;;;7.45;100.00
44131;BME280;29792;48.726;9.248;2024-02-28T03:44:13;96972.88;;;7.44;100.00
44131;BME280;29792;48.726;9.248;2024-02-28T03:46:38;96977.88;;;7.45;100.00
44131;BME280;29792;48.726;9.248;2024-02-28T03:49:04;96980.41;;;7.45;100.00
44131;BME280;29792;48.726;9.248;2024-02-28T03:51:29;96971.97;;;7.45;100.00
44131;BME280;29792;48.726;9.248;2024-02-28T03:53:55;96980.41;;;7.45;100.00
44131;BME280;29792;48.726;9.248;2024-02-28T03:56:23;96985.50;;;7.45;100.00
44131;BME280;29792;48.726;9.248;2024-02-28T03:58:50;96980.50;;;7.44;100.00
44131;BME280;29792;48.726;9.248;2024-02-28T04:01:15;96972.97;;;7.42;100.00
44131;BME280;29792;48.726;9.248;2024-02-28T04:03:40;96984.78;;;7.43;100.00
44131;BME280;29792;48.726;9.248;2024-02-28T04:06:06;96980.72;;;7.41;100.00
44131;BME280;29792;48.726;9.248;2024-02-28T04:08:31;96984.19;;;7.40;100.00
44131;BME280;29792;48.726;9.248;2024-02-28T04:10:56;96991.91;;;7.38;100.00
44131;BME280;29792;48.726;9.248;2024-02-28T04:13:21;96982.78;;;7.36;100.00
44131;BME280;29792;48.726;9.248;2024-02-28T04:15:47;96986.94;;;7.37;100.00
44131;BME280;29792;48.726;9.248;2024-02-28T04:18:12;96983.69;;;7.35;100.00
44131;BME280;29792;48.726;9.248;2024-02-28T04:20:37;96984.69;;;7.32;100.00
44131;BME280;29792;48.726;9.248;2024-02-28T04:23:03;96989.88;;;7.31;100.00
44131;BME280;29792;48.726;9.248;2024-02-28T04:25:29;96988.38;;;7.28;100.00
44131;BME280;29792;48.726;9.248;2024-02-28T04:27:54;96990.31;;;7.24;100.00
44131;BME280;29792;48.726;9.248;2024-02-28T04:30:19;96991.31;;;7.22;100.00
44131;BME280;29792;48.726;9.248;2024-02-28T04:32:45;96987.38;;;7.18;100.00
44131;BME280;29792;48.726;9.248;2024-02-28T04:35:10;96987.47;;;7.16;100.00
44131;BME280;29792;48.726;9.248;2024-02-28T04:37:35;96987.78;;;7.12;100.00
44131;BME280;29792;48.726;9.248;2024-02-28T04:40:02;96988.88;;;7.08;100.00
44131;BME280;29792;48.726;9.248;2024-02-28T04:42:27;96988.97;;;7.06;100.00
44131;BME280;29792;48.726;9.248;2024-02-28T04:44:52;96992.56;;;7.04;100.00
44131;BME280;29792;48.726;9.248;2024-02-28T04:47:18;96997.84;;;7.01;100.00
44131;BME280;29792;48.726;9.248;2024-02-28T04:49:43;96993.97;;;6.95;100.00
44131;BME280;29792;48.726;9.248;2024-02-28T04:52:08;96996.72;;;6.92;100.00
44131;BME280;29792;48.726;9.248;2024-02-28T04:54:33;96991.63;;;6.92;100.00
44131;BME280;29792;48.726;9.248;2024-02-28T04:56:59;96995.19;;;6.89;100.00
44131;BME280;29792;48.726;9.248;2024-02-28T04:59:24;97001.09;;;6.90;100.00
44131;BME280;29792;48.726;9.248;2024-02-28T05:01:49;96997.03;;;6.87;100.00
44131;BME280;29792;48.726;9.248;2024-02-28T05:04:15;97003.03;;;6.86;100.00
44131;BME280;29792;48.726;9.248;2024-02-28T05:06:40;97003.03;;;6.86;100.00
44131;BME280;29792;48.726;9.248;2024-02-28T05:09:05;97003.75;;;6.88;100.00
44131;BME280;29792;48.726;9.248;2024-02-28T05:11:31;97011.41;;;6.88;100.00
44131;BME280;29792;48.726;9.248;2024-02-28T05:13:57;97018.22;;;6.88;100.00
44131;BME280;29792;48.726;9.248;2024-02-28T05:16:22;97013.22;;;6.86;100.00
44131;BME280;29792;48.726;9.248;2024-02-28T05:18:47;97015.78;;;6.86;100.00
44131;BME280;29792;48.726;9.248;2024-02-28T05:21:13;97022.50;;;6.87;100.00
44131;BME280;29792;48.726;9.248;2024-02-28T05:23:39;97024.00;;;6.90;100.00
44131;BME280;29792;48.726;9.248;2024-02-28T05:26:05;97024.94;;;6.89;100.00
44131;BME280;29792;48.726;9.248;2024-02-28T05:28:32;97025.72;;;6.89;100.00
44131;BME280;29792;48.726;9.248;2024-02-28T05:30:58;97026.56;;;6.90;100.00
44131;BME280;29792;48.726;9.248;2024-02-28T05:33:24;97024.13;;;6.88;100.00
44131;BME280;29792;48.726;9.248;2024-02-28T05:35:49;97025.72;;;6.89;100.00
44131;BME280;29792;48.726;9.248;2024-02-28T05:38:15;97030.81;;;6.89;100.00
44131;BME280;29792;48.726;9.248;2024-02-28T05:40:43;97031.78;;;6.88;100.00
44131;BME280;29792;48.726;9.248;2024-02-28T05:43:08;97037.56;;;6.90;100.00
44131;BME280;29792;48.726;9.248;2024-02-28T05:45:33;97046.81;;;6.92;100.00
44131;BME280;29792;48.726;9.248;2024-02-28T05:47:58;97050.19;;;6.92;100.00
44131;BME280;29792;48.726;9.248;2024-02-28T05:50:24;97052.00;;;6.90;100.00
44131;BME280;29792;48.726;9.248;2024-02-28T05:52:50;97051.41;;;6.86;100.00
44131;BME280;29792;48.726;9.248;2024-02-28T05:55:15;97050.78;;;6.83;100.00
44131;BME280;29792;48.726;9.248;2024-02-28T05:57:40;97056.59;;;6.85;100.00
44131;BME280;29792;48.726;9.248;2024-02-28T06:00:06;97054.88;;;6.85;100.00
44131;BME280;29792;48.726;9.248;2024-02-28T06:02:36;97063.22;;;6.87;100.00
44131;BME280;29792;48.726;9.248;2024-02-28T06:05:02;97063.22;;;6.87;100.00
44131;BME280;29792;48.726;9.248;2024-02-28T06:07:27;97075.06;;;6.88;100.00
44131;BME280;29792;48.726;9.248;2024-02-28T06:09:52;97072.59;;;6.87;100.00
44131;BME280;29792;48.726;9.248;2024-02-28T06:12:17;97074.59;;;6.82;100.00
44131;BME280;29792;48.726;9.248;2024-02-28T06:14:43;97083.06;;;6.82;100.00
44131;BME280;29792;48.726;9.248;2024-02-28T06:17:08;97083.88;;;6.83;100.00
44131;BME280;29792;48.726;9.248;2024-02-28T06:19:33;97077.16;;;6.82;100.00
44131;BME280;29792;48.726;9.248;2024-02-28T06:21:58;97092.44;;;6.82;100.00
44131;BME280;29792;48.726;9.248;2024-02-28T06:24:24;97090.00;;;6.80;100.00
44131;BME280;29792;48.726;9.248;2024-02-28T06:26:49;97086.63;;;6.80;100.00
44131;BME280;29792;48.726;9.248;2024-02-28T06:29:14;97099.38;;;6.80;100.00
44131;BME280;29792;48.726;9.248;2024-02-28T06:31:40;97104.34;;;6.81;100.00
44131;BME280;29792;48.726;9.248;2024-02-28T06:34:05;97113.72;;;6.81;100.00
44131;BME280;29792;48.726;9.248;2024-02-28T06:36:30;97103.63;;;6.79;100.00
44131;BME280;29792;48.726;9.248;2024-02-28T06:38:57;97113.09;;;6.77;100.00
44131;BME280;29792;48.726;9.248;2024-02-28T06:41:23;97113.91;;;6.78;100.00
44131;BME280;29792;48.726;9.248;2024-02-28T06:43:48;97122.38;;;6.78;100.00
44131;BME280;29792;48.726;9.248;2024-02-28T06:46:13;97132.47;;;6.80;100.00
44131;BME280;29792;48.726;9.248;2024-02-28T06:48:38;97135.91;;;6.79;100.00
44131;BME280;29792;48.726;9.248;2024-02-28T06:51:04;97138.56;;;6.77;100.00
44131;BME280;29792;48.726;9.248;2024-02-28T06:53:29;97137.72;;;6.77;100.00
44131;BME280;29792;48.726;9.248;2024-02-28T06:55:54;97135.09;;;6.78;100.00
44131;BME280;29792;48.726;9.248;2024-02-28T06:58:20;97132.56;;;6.78;100.00
44131;BME280;29792;48.726;9.248;2024-02-28T07:00:46;97135.00;;;6.80;100.00
44131;BME280;29792;48.726;9.248;2024-02-28T07:03:12;97132.47;;;6.80;100.00
44131;BME280;29792;48.726;9.248;2024-02-28T07:05:37;97137.34;;;6.83;100.00
44131;BME280;29792;48.726;9.248;2024-02-28T07:08:02;97144.06;;;6.84;100.00
44131;BME280;29792;48.726;9.248;2024-02-28T07:10:28;97146.53;;;6.85;100.00
44131;BME280;29792;48.726;9.248;2024-02-28T07:12:53;97146.44;;;6.87;100.00
44131;BME280;29792;48.726;9.248;2024-02-28T07:15:19;97148.78;;;6.90;100.00
44131;BME280;29792;48.726;9.248;2024-02-28T07:17:46;97140.22;;;6.91;100.00
44131;BME280;29792;48.726;9.248;2024-02-28T07:20:12;97151.78;;;6.97;100.00
44131;BME280;29792;48.726;9.248;2024-02-28T07:22:37;97148.28;;;6.98;100.00
44131;BME280;29792;48.726;9.248;2024-02-28T07:25:03;97160.75;;;7.02;100.00
44131;BME280;29792;48.726;9.248;2024-02-28T07:27:29;97157.19;;;7.05;100.00
44131;BME280;29792;48.726;9.248;2024-02-28T07:29:55;97172.16;;;7.09;100.00
44131;BME280;29792;48.726;9.248;2024-02-28T07:32:20;97175.22;;;7.14;100.00
44131;BME280;29792;48.726;9.248;2024-02-28T07:34:45;97171.88;;;7.14;100.00
44131;BME280;29792;48.726;9.248;2024-02-28T07:37:10;97179.50;;;7.14;100.00
44131;BME280;29792;48.726;9.248;2024-02-28T07:39:37;97174.22;;;7.17;100.00
44131;BME280;29792;48.726;9.248;2024-02-28T07:42:02;97178.41;;;7.18;100.00
44131;BME280;29792;48.726;9.248;2024-02-28T07:44:28;97179.94;;;7.20;100.00
44131;BME280;29792;48.726;9.248;2024-02-28T07:46:56;97177.28;;;7.22;100.00
44131;BME280;29792;48.726;9.248;2024-02-28T07:49:21;97175.38;;;7.25;100.00
44131;BME280;29792;48.726;9.248;2024-02-28T07:51:46;97180.16;;;7.30;100.00
44131;BME280;29792;48.726;9.248;2024-02-28T07:54:12;97190.16;;;7.33;100.00
44131;BME280;29792;48.726;9.248;2024-02-28T07:56:37;97193.53;;;7.34;100.00
44131;BME280;29792;48.726;9.248;2024-02-28T07:59:02;97197.06;;;7.31;100.00
44131;BME280;29792;48.726;9.248;2024-02-28T08:01:27;97197.28;;;7.28;100.00
44131;BME280;29792;48.726;9.248;2024-02-28T08:03:53;97205.03;;;7.26;100.00
44131;BME280;29792;48.726;9.248;2024-02-28T08:06:19;97196.75;;;7.23;100.00
44131;BME280;29792;48.726;9.248;2024-02-28T08:08:44;97202.75;;;7.22;100.00
44131;BME280;29792;48.726;9.248;2024-02-28T08:11:13;97206.25;;;7.21;100.00
44131;BME280;29792;48.726;9.248;2024-02-28T08:13:38;97204.59;;;7.20;100.00
44131;BME280;29792;48.726;9.248;2024-02-28T08:16:05;97206.34;;;7.19;100.00
44131;BME280;29792;48.726;9.248;2024-02-28T08:18:31;97206.44;;;7.18;100.00
44131;BME280;29792;48.726;9.248;2024-02-28T08:20:59;97214.59;;;7.23;100.00
44131;BME280;29792;48.726;9.248;2024-02-28T08:23:24;97213.59;;;7.25;100.00
44131;BME280;29792;48.726;9.248;2024-02-28T08:25:51;97210.84;;;7.28;100.00
44131;BME280;29792;48.726;9.248;2024-02-28T08:28:16;97209.94;;;7.30;100.00
44131;BME280;29792;48.726;9.248;2024-02-28T08:30:42;97213.91;;;7.34;100.00
44131;BME280;29792;48.726;9.248;2024-02-28T08:33:07;97220.56;;;7.36;100.00
44131;BME280;29792;48.726;9.248;2024-02-28T08:35:34;97222.78;;;7.41;100.00
44131;BME280;29792;48.726;9.248;2024-02-28T08:37:59;97216.88;;;7.40;100.00
44131;BME280;29792;48.726;9.248;2024-02-28T08:40:24;97221.88;;;7.42;100.00
44131;BME280;29792;48.726;9.248;2024-02-28T08:42:49;97223.34;;;7.46;100.00
44131;BME280;29792;48.726;9.248;2024-02-28T08:45:18;97225.75;;;7.47;100.00
44131;BME280;29792;48.726;9.248;2024-02-28T08:47:43;97223.34;;;7.46;100.00
44131;BME280;29792;48.726;9.248;2024-02-28T08:50:09;97226.59;;;7.48;100.00
44131;BME280;29792;48.726;9.248;2024-02-28T08:52:35;97227.31;;;7.50;100.00
44131;BME280;29792;48.726;9.248;2024-02-28T08:55:00;97228.84;;;7.52;100.00
44131;BME280;29792;48.726;9.248;2024-02-28T08:57:25;97237.81;;;7.58;100.00
44131;BME280;29792;48.726;9.248;2024-02-28T08:59:50;97245.16;;;7.62;100.00
44131;BME280;29792;48.726;9.248;2024-02-28T09:02:16;97238.16;;;7.66;100.00
44131;BME280;29792;48.726;9.248;2024-02-28T09:04:41;97234.50;;;7.70;100.00
44131;BME280;29792;48.726;9.248;2024-02-28T09:07:07;97235.28;;;7.71;100.00
44131;BME280;29792;48.726;9.248;2024-02-28T09:09:32;97241.94;;;7.73;100.00
44131;BME280;29792;48.726;9.248;2024-02-28T09:12:03;97229.72;;;7.78;100.00
44131;BME280;29792;48.726;9.248;2024-02-28T09:14:28;97233.50;;;7.85;100.00
44131;BME280;29792;48.726;9.248;2024-02-28T09:16:53;97232.38;;;7.89;100.00
44131;BME280;29792;48.726;9.248;2024-02-28T09:19:21;97233.19;;;7.90;100.00
44131;BME280;29792;48.726;9.248;2024-02-28T09:21:46;97229.72;;;7.91;100.00
44131;BME280;29792;48.726;9.248;2024-02-28T09:24:13;97233.00;;;7.93;100.00
44131;BME280;29792;48.726;9.248;2024-02-28T09:26:39;97239.72;;;7.94;100.00
44131;BME280;29792;48.726;9.248;2024-02-28T09:29:04;97236.97;;;7.97;100.00
44131;BME280;29792;48.726;9.248;2024-02-28T09:31:29;97237.50;;;8.02;100.00
44131;BME280;29792;48.726;9.248;2024-02-28T09:33:54;97237.06;;;8.08;100.00
44131;BME280;29792;48.726;9.248;2024-02-28T09:36:22;97243.50;;;8.14;100.00
44131;BME280;29792;48.726;9.248;2024-02-28T09:38:47;97243.22;;;8.18;100.00
44131;BME280;29792;48.726;9.248;2024-02-28T09:41:15;97243.91;;;8.20;100.00
44131;BME280;29792;48.726;9.248;2024-02-28T09:43:44;97242.06;;;8.22;99.85
44131;BME280;29792;48.726;9.248;2024-02-28T09:46:11;97247.91;;;8.24;99.34
44131;BME280;29792;48.726;9.248;2024-02-28T09:48:38;97252.78;;;8.27;99.42
44131;BME280;29792;48.726;9.248;2024-02-28T09:51:05;97254.63;;;8.25;98.21
44131;BME280;29792;48.726;9.248;2024-02-28T09:53:30;97256.47;;;8.23;98.41
44131;BME280;29792;48.726;9.248;2024-02-28T09:55:56;97257.38;;;8.22;97.79
44131;BME280;29792;48.726;9.248;2024-02-28T09:58:22;97266.66;;;8.23;97.80
44131;BME280;29792;48.726;9.248;2024-02-28T10:00:48;97255.44;;;8.26;97.39
44131;BME280;29792;48.726;9.248;2024-02-28T10:03:17;97261.38;;;8.26;97.03
44131;BME280;29792;48.726;9.248;2024-02-28T10:05:48;97262.63;;;8.33;97.06
44131;BME280;29792;48.726;9.248;2024-02-28T10:08:14;97260.75;;;8.35;95.80
44131;BME280;29792;48.726;9.248;2024-02-28T10:10:49;97262.22;;;8.39;95.81
44131;BME280;29792;48.726;9.248;2024-02-28T10:13:17;97262.00;;;8.43;95.23
44131;BME280;29792;48.726;9.248;2024-02-28T10:15:43;97269.66;;;8.43;95.46
44131;BME280;29792;48.726;9.248;2024-02-28T10:18:08;97258.31;;;8.47;95.23
44131;BME280;29792;48.726;9.248;2024-02-28T10:20:34;97253.13;;;8.48;94.72
44131;BME280;29792;48.726;9.248;2024-02-28T10:23:03;97264.63;;;8.54;95.30
44131;BME280;29792;48.726;9.248;2024-02-28T10:25:29;97272.09;;;8.57;94.97
44131;BME280;29792;48.726;9.248;2024-02-28T10:27:59;97276.06;;;8.61;94.60
44131;BME280;29792;48.726;9.248;2024-02-28T10:30:24;97269.22;;;8.61;94.12
44131;BME280;29792;48.726;9.248;2024-02-28T10:32:49;97276.34;;;8.69;94.46
44131;BME280;29792;48.726;9.248;2024-02-28T10:35:17;97275.25;;;8.73;93.94
44131;BME280;29792;48.726;9.248;2024-02-28T10:37:51;97275.84;;;8.76;93.40
44131;BME280;29792;48.726;9.248;2024-02-28T10:40:16;97286.88;;;8.77;92.76
44131;BME280;29792;48.726;9.248;2024-02-28T10:42:42;97294.66;;;8.75;92.27
44131;BME280;29792;48.726;9.248;2024-02-28T10:45:12;97296.41;;;8.75;91.95
44131;BME280;29792;48.726;9.248;2024-02-28T10:47:40;97299.03;;;8.73;92.13
44131;BME280;29792;48.726;9.248;2024-02-28T10:50:06;97303.25;;;8.74;91.99
44131;BME280;29792;48.726;9.248;2024-02-28T10:52:33;97313.56;;;8.73;91.59
44131;BME280;29792;48.726;9.248;2024-02-28T10:54:59;97304.34;;;8.70;91.12
44131;BME280;29792;48.726;9.248;2024-02-28T10:57:27;97306.81;;;8.72;91.73
44131;BME280;29792;48.726;9.248;2024-02-28T10:59:55;97300.78;;;8.73;91.64
44131;BME280;29792;48.726;9.248;2024-02-28T11:02:22;97304.06;;;8.75;91.44
44131;BME280;29792;48.726;9.248;2024-02-28T11:04:51;97303.81;;;8.78;91.23
44131;BME280;29792;48.726;9.248;2024-02-28T11:07:20;97298.53;;;8.81;91.37
44131;BME280;29792;48.726;9.248;2024-02-28T11:09:46;97301.91;;;8.82;91.07
44131;BME280;29792;48.726;9.248;2024-02-28T11:12:28;97305.97;;;8.84;91.36
44131;BME280;29792;48.726;9.248;2024-02-28T11:15:02;97301.13;;;8.92;91.61
44131;BME280;29792;48.726;9.248;2024-02-28T11:17:28;97307.47;;;8.99;91.34
44131;BME280;29792;48.726;9.248;2024-02-28T11:19:54;97298.28;;;8.97;90.43
44131;BME280;29792;48.726;9.248;2024-02-28T11:22:20;97305.22;;;8.95;89.52
44131;BME280;29792;48.726;9.248;2024-02-28T11:24:46;97313.22;;;8.90;89.51
44131;BME280;29792;48.726;9.248;2024-02-28T11:27:12;97312.00;;;8.83;89.44
44131;BME280;29792;48.726;9.248;2024-02-28T11:29:41;97315.78;;;8.77;89.17
44131;BME280;29792;48.726;9.248;2024-02-28T11:32:06;97311.59;;;8.76;89.74
44131;BME280;29792;48.726;9.248;2024-02-28T11:34:33;97315.78;;;8.77;89.80
44131;BME280;29792;48.726;9.248;2024-02-28T11:36:59;97318.22;;;8.79;89.54
44131;BME280;29792;48.726;9.248;2024-02-28T11:39:24;97314.88;;;8.78;89.31
44131;BME280;29792;48.726;9.248;2024-02-28T11:41:52;97317.31;;;8.80;89.47
44131;BME280;29792;48.726;9.248;2024-02-28T11:44:18;97312.94;;;8.82;89.31
44131;BME280;29792;48.726;9.248;2024-02-28T11:46:48;97318.53;;;8.87;89.13
44131;BME280;29792;48.726;9.248;2024-02-28T11:49:14;97322.72;;;8.88;89.06
44131;BME280;29792;48.726;9.248;2024-02-28T11:51:44;97325.28;;;8.88;89.23
44131;BME280;29792;48.726;9.248;2024-02-28T11:54:10;97317.72;;;8.87;88.92
44131;BME280;29792;48.726;9.248;2024-02-28T11:56:36;97324.66;;;8.85;88.54
44131;BME280;29792;48.726;9.248;2024-02-28T11:59:02;97324.88;;;8.82;88.76
44131;BME280;29792;48.726;9.248;2024-02-28T12:01:36;97318.03;;;8.82;88.80
44131;BME280;29792;48.726;9.248;2024-02-28T12:04:03;97324.16;;;8.79;88.11
44131;BME280;29792;48.726;9.248;2024-02-28T12:06:29;97318.56;;;8.74;88.34
44131;BME280;29792;48.726;9.248;2024-02-28T12:08:55;97316.94;;;8.73;88.12
44131;BME280;29792;48.726;9.248;2024-02-28T12:11:20;97316.09;;;8.73;89.11
44131;BME280;29792;48.726;9.248;2024-02-28T12:13:45;97307.00;;;8.69;88.22
44131;BME280;29792;48.726;9.248;2024-02-28T12:16:11;97313.84;;;8.68;88.80
44131;BME280;29792;48.726;9.248;2024-02-28T12:18:36;97307.00;;;8.69;88.70
44131;BME280;29792;48.726;9.248;2024-02-28T12:21:02;97306.19;;;8.68;88.82
44131;BME280;29792;48.726;9.248;2024-02-28T12:23:27;97307.91;;;8.68;88.89
44131;BME280;29792;48.726;9.248;2024-02-28T12:25:52;97309.56;;;8.69;88.84
44131;BME280;29792;48.726;9.248;2024-02-28T12:28:18;97299.25;;;8.70;88.91
44131;BME280;29792;48.726;9.248;2024-02-28T12:30:43;97304.06;;;8.75;89.22
44131;BME280;29792;48.726;9.248;2024-02-28T12:33:10;97298.00;;;8.76;88.40
44131;BME280;29792;48.726;9.248;2024-02-28T12:35:36;97295.88;;;8.70;87.94
44131;BME280;29792;48.726;9.248;2024-02-28T12:38:02;97298.53;;;8.68;88.01
44131;BME280;29792;48.726;9.248;2024-02-28T12:40:27;97298.66;;;8.67;88.06
44131;BME280;29792;48.726;9.248;2024-02-28T12:42:52;97294.56;;;8.64;87.92
44131;BME280;29792;48.726;9.248;2024-02-28T12:45:18;97303.84;;;8.65;87.79
44131;BME280;29792;48.726;9.248;2024-02-28T12:47:43;97295.56;;;8.62;87.69
44131;BME280;29792;48.726;9.248;2024-02-28T12:50:08;97291.38;;;8.61;88.20
44131;BME280;29792;48.726;9.248;2024-02-28T12:52:34;97298.94;;;8.62;88.29
44131;BME280;29792;48.726;9.248;2024-02-28T12:55:00;97301.50;;;8.62;88.17